createdAt,value
2023-03-26T00:03:55.073Z,12.38
2023-03-26T00:06:24.064Z,13.52
2023-03-26T00:08:52.465Z,13.02
2023-03-26T00:11:21.895Z,12.30
2023-03-26T00:13:48.969Z,13.93
2023-03-26T00:16:18.144Z,14.38
2023-03-26T00:18:46.091Z,14.57
2023-03-26T00:21:18.026Z,14.43
2023-03-26T00:23:45.402Z,14.45
2023-03-26T00:26:12.845Z,14.02
2023-03-26T00:28:41.409Z,12.82
2023-03-26T00:31:11.496Z,13.85
2023-03-26T00:33:40.699Z,12.20
2023-03-26T00:36:10.953Z,12.60
2023-03-26T00:38:39.271Z,13.30
2023-03-26T00:41:18.004Z,10.77
2023-03-26T00:43:46.636Z,10.95
2023-03-26T00:46:13.614Z,11.00
2023-03-26T00:48:45.920Z,11.48
2023-03-26T00:51:17.884Z,10.88
2023-03-26T00:53:46.956Z,11.40
2023-03-26T00:56:14.326Z,11.52
2023-03-26T00:58:41.378Z,11.57
2023-03-26T01:01:14.853Z,11.63
2023-03-26T01:03:53.007Z,9.98
2023-03-26T01:06:36.160Z,10.13
2023-03-26T01:09:23.994Z,8.85
2023-03-26T01:11:51.070Z,8.27
2023-03-26T01:14:25.334Z,8.93
2023-03-26T01:16:55.047Z,8.85
2023-03-26T01:19:33.864Z,8.13
2023-03-26T01:22:00.694Z,7.65
2023-03-26T01:27:14.934Z,8.13
2023-03-26T01:30:15.734Z,7.97
2023-03-26T01:32:58.041Z,8.38
2023-03-26T01:35:52.478Z,7.35
2023-03-26T01:39:00.789Z,7.97
2023-03-26T01:41:42.667Z,7.63
2023-03-26T01:44:18.288Z,10.15
2023-03-26T01:46:46.393Z,8.95
2023-03-26T01:49:13.485Z,10.48
2023-03-26T01:51:42.531Z,9.65
2023-03-26T01:54:14.737Z,9.52
2023-03-26T01:57:09.495Z,10.25
2023-03-26T01:59:42.573Z,9.88
2023-03-26T02:02:21.857Z,8.70
2023-03-26T02:05:08.388Z,7.30
2023-03-26T02:07:50.972Z,7.13
2023-03-26T02:10:24.168Z,6.88
2023-03-26T02:15:17.975Z,6.43
2023-03-26T02:17:44.789Z,6.22
2023-03-26T02:20:14.251Z,6.15
2023-03-26T02:22:46.100Z,6.80
2023-03-26T02:25:21.617Z,6.50
2023-03-26T02:27:49.891Z,6.18
2023-03-26T02:30:25.795Z,6.82
2023-03-26T02:32:54.149Z,6.10
2023-03-26T02:35:22.225Z,5.88
2023-03-26T02:37:51.011Z,6.50
2023-03-26T02:40:22.313Z,6.05
2023-03-26T02:42:49.558Z,6.70
2023-03-26T02:45:17.297Z,6.53
2023-03-26T02:47:45.969Z,8.02
2023-03-26T02:50:13.017Z,8.10
2023-03-26T02:52:39.957Z,8.10
2023-03-26T02:55:07.486Z,8.90
2023-03-26T02:57:34.596Z,9.05
2023-03-26T03:00:02.412Z,7.95
2023-03-26T03:02:29.470Z,8.07
2023-03-26T03:05:01.488Z,8.25
2023-03-26T03:07:29.139Z,8.75
2023-03-26T03:09:56.028Z,7.90
2023-03-26T03:12:22.911Z,7.30
2023-03-26T03:14:49.708Z,9.15
2023-03-26T03:17:16.487Z,9.27
2023-03-26T03:22:09.942Z,9.77
2023-03-26T03:27:03.366Z,11.15
2023-03-26T03:31:57.012Z,10.75
2023-03-26T03:34:25.496Z,11.68
2023-03-26T03:36:53.549Z,12.38
2023-03-26T03:39:20.259Z,11.07
2023-03-26T03:41:47.018Z,11.35
2023-03-26T03:46:40.456Z,11.32
2023-03-26T03:51:35.200Z,11.68
2023-03-26T03:54:02.040Z,12.18
2023-03-26T03:58:58.277Z,10.43
2023-03-26T04:01:25.244Z,10.10
2023-03-26T04:03:52.132Z,9.85
2023-03-26T04:06:19.211Z,10.25
2023-03-26T04:08:46.583Z,9.68
2023-03-26T04:11:14.397Z,10.40
2023-03-26T04:13:41.246Z,11.07
2023-03-26T04:16:08.511Z,10.00
2023-03-26T04:18:37.496Z,10.93
2023-03-26T04:21:05.280Z,11.57
2023-03-26T04:23:32.360Z,10.98
2023-03-26T04:26:04.291Z,11.80
2023-03-26T04:28:48.355Z,13.15
2023-03-26T04:31:24.311Z,11.40
2023-03-26T04:33:56.388Z,11.95
2023-03-26T04:36:28.361Z,12.95
2023-03-26T04:38:58.250Z,12.07
2023-03-26T04:41:28.981Z,10.10
2023-03-26T04:43:56.850Z,9.35
2023-03-26T04:46:24.129Z,9.63
2023-03-26T04:48:52.236Z,8.95
2023-03-26T04:51:24.341Z,9.50
2023-03-26T04:54:02.582Z,9.38
2023-03-26T04:56:48.088Z,8.70
2023-03-26T04:59:26.356Z,9.70
2023-03-26T05:01:53.713Z,8.48
2023-03-26T05:04:23.625Z,9.10
2023-03-26T05:06:50.615Z,8.38
2023-03-26T05:09:17.500Z,9.68
2023-03-26T05:14:11.129Z,9.02
2023-03-26T05:19:06.981Z,10.73
2023-03-26T05:21:33.732Z,12.60
2023-03-26T05:24:00.955Z,13.68
2023-03-26T05:26:29.224Z,11.73
2023-03-26T05:28:56.913Z,13.30
2023-03-26T05:31:23.982Z,14.63
2023-03-26T05:33:50.891Z,14.52
2023-03-26T05:38:49.789Z,13.65
2023-03-26T05:41:17.161Z,12.90
2023-03-26T05:43:45.002Z,13.02
2023-03-26T05:46:12.700Z,13.23
2023-03-26T05:48:39.711Z,14.30
2023-03-26T05:53:33.735Z,13.93
2023-03-26T05:56:00.866Z,12.00
2023-03-26T05:58:32.787Z,13.07
2023-03-26T06:01:02.575Z,13.30
2023-03-26T06:03:32.983Z,13.70
2023-03-26T06:05:59.940Z,14.32
2023-03-26T06:11:13.760Z,13.52
2023-03-26T06:13:41.163Z,13.75
2023-03-26T06:16:09.371Z,13.90
2023-03-26T06:18:56.550Z,13.95
2023-03-26T06:21:25.624Z,14.25
2023-03-26T06:23:53.047Z,12.10
2023-03-26T06:26:20.731Z,11.15
2023-03-26T06:28:47.765Z,12.30
2023-03-26T06:31:14.542Z,11.52
2023-03-26T06:33:41.298Z,11.82
2023-03-26T06:36:08.563Z,13.75
2023-03-26T06:38:35.468Z,12.52
2023-03-26T06:43:33.930Z,14.30
2023-03-26T06:46:04.692Z,14.70
2023-03-26T06:48:31.727Z,15.02
2023-03-26T06:50:58.622Z,17.48
2023-03-26T06:53:25.604Z,16.92
2023-03-26T06:55:53.975Z,20.25
2023-03-26T06:58:20.920Z,23.20
2023-03-26T07:00:47.916Z,23.08
2023-03-26T07:03:17.131Z,20.38
2023-03-26T07:05:43.922Z,18.92
2023-03-26T07:08:11.072Z,18.85
2023-03-26T07:10:37.884Z,21.27
2023-03-26T07:15:31.344Z,18.95
2023-03-26T07:20:25.593Z,19.10
2023-03-26T07:22:53.364Z,19.20
2023-03-26T07:25:20.606Z,18.88
2023-03-26T07:28:37.379Z,18.45
2023-03-26T07:31:04.144Z,17.77
2023-03-26T07:36:13.495Z,19.77
2023-03-26T07:39:09.877Z,20.05
2023-03-26T07:41:39.459Z,18.27
2023-03-26T07:44:06.230Z,19.42
2023-03-26T07:49:05.272Z,16.65
2023-03-26T07:51:32.823Z,17.10
2023-03-26T07:54:00.735Z,17.55
2023-03-26T07:56:38.657Z,15.88
2023-03-26T07:59:24.392Z,16.02
2023-03-26T08:01:58.386Z,14.05
2023-03-26T08:04:48.834Z,14.32
2023-03-26T08:07:45.100Z,9.88
2023-03-26T08:10:28.745Z,9.25
2023-03-26T08:13:02.482Z,8.82
2023-03-26T08:15:45.830Z,7.28
2023-03-26T08:18:21.792Z,8.00
2023-03-26T08:20:54.350Z,7.00
2023-03-26T08:23:50.362Z,7.53
2023-03-26T08:26:34.586Z,7.15
2023-03-26T08:29:14.371Z,7.88
2023-03-26T08:31:42.580Z,7.70
2023-03-26T08:34:12.541Z,7.28
2023-03-26T08:36:39.581Z,7.50
2023-03-26T08:39:07.722Z,8.38
2023-03-26T08:41:37.423Z,7.63
2023-03-26T08:44:30.739Z,8.05
2023-03-26T08:47:09.440Z,7.63
2023-03-26T08:49:56.380Z,7.80
2023-03-26T08:52:56.216Z,6.78
2023-03-26T08:55:36.534Z,7.75
2023-03-26T08:58:23.043Z,7.22
2023-03-26T09:01:27.457Z,5.93
2023-03-26T09:04:05.718Z,5.47
2023-03-26T09:07:07.757Z,6.05
2023-03-26T09:09:52.974Z,5.43
2023-03-26T09:12:35.042Z,4.80
2023-03-26T09:15:29.710Z,4.43
2023-03-26T09:18:02.377Z,3.13
2023-03-26T09:20:41.495Z,3.53
2023-03-26T09:23:32.595Z,3.22
2023-03-26T09:26:44.836Z,3.20
2023-03-26T09:29:25.641Z,4.18
2023-03-26T09:32:17.536Z,2.60
2023-03-26T09:35:13.294Z,2.80
2023-03-26T09:38:00.795Z,3.15
2023-03-26T09:41:05.848Z,2.80
2023-03-26T09:43:38.395Z,2.22
2023-03-26T09:46:46.724Z,3.28
2023-03-26T09:49:34.617Z,2.58
2023-03-26T09:52:28.553Z,2.88
2023-03-26T09:55:28.541Z,2.83
2023-03-26T09:58:23.469Z,3.13
2023-03-26T10:00:56.656Z,3.38
2023-03-26T10:03:51.719Z,3.10
2023-03-26T10:07:03.563Z,3.42
2023-03-26T10:10:03.361Z,3.20
2023-03-26T10:12:37.187Z,3.17
2023-03-26T10:15:31.234Z,4.38
2023-03-26T10:18:27.727Z,3.38
2023-03-26T10:23:48.887Z,2.92
2023-03-26T10:26:30.743Z,2.80
2023-03-26T10:29:12.774Z,3.08
2023-03-26T10:32:17.061Z,3.42
2023-03-26T10:35:02.594Z,3.03
2023-03-26T10:40:42.851Z,3.00
2023-03-26T10:43:30.695Z,3.30
2023-03-26T10:46:04.058Z,3.00
2023-03-26T10:49:14.781Z,3.08
2023-03-26T10:51:44.556Z,2.97
2023-03-26T10:54:15.355Z,3.88
2023-03-26T10:56:49.357Z,3.92
2023-03-26T10:59:17.744Z,3.90
2023-03-26T11:01:51.303Z,4.05
2023-03-26T11:04:27.063Z,3.42
2023-03-26T11:07:21.175Z,3.70
2023-03-26T11:09:57.366Z,3.58
2023-03-26T11:12:35.739Z,4.53
2023-03-26T11:15:34.731Z,3.72
2023-03-26T11:18:23.380Z,3.78
2023-03-26T11:21:19.404Z,3.95
2023-03-26T11:24:12.849Z,4.10
2023-03-26T11:26:49.116Z,3.70
2023-03-26T11:29:50.449Z,3.80
2023-03-26T11:32:22.789Z,4.00
2023-03-26T11:34:58.320Z,3.70
2023-03-26T11:37:42.252Z,4.20
2023-03-26T11:40:24.405Z,4.18
2023-03-26T11:43:18.679Z,4.28
2023-03-26T11:45:49.793Z,4.35
2023-03-26T11:48:40.653Z,4.07
2023-03-26T11:51:11.649Z,4.30
2023-03-26T11:53:39.553Z,3.55
2023-03-26T11:56:23.320Z,4.00
2023-03-26T11:59:21.680Z,3.92
2023-03-26T12:01:51.921Z,4.00
2023-03-26T12:04:55.336Z,4.22
2023-03-26T12:07:33.358Z,4.20
2023-03-26T12:10:17.873Z,3.50
2023-03-26T12:12:47.088Z,3.13
2023-03-26T12:15:20.027Z,3.60
2023-03-26T12:17:50.270Z,3.90
2023-03-26T12:20:26.322Z,3.65
2023-03-26T12:22:59.045Z,3.63
2023-03-26T12:28:14.076Z,3.42
2023-03-26T12:31:02.935Z,3.58
2023-03-26T12:33:34.862Z,3.88
2023-03-26T12:36:31.577Z,3.70
2023-03-26T12:39:16.554Z,4.10
2023-03-26T12:42:52.810Z,3.45
2023-03-26T12:44:59.228Z,3.25
2023-03-26T12:47:59.421Z,3.45
2023-03-26T12:50:34.298Z,2.97
2023-03-26T12:54:18.135Z,2.65
2023-03-26T12:57:12.358Z,3.15
2023-03-26T12:59:58.846Z,2.42
2023-03-26T13:02:29.213Z,2.55
2023-03-26T13:05:08.564Z,2.50
2023-03-26T13:10:30.517Z,2.55
2023-03-26T13:13:03.514Z,2.85
2023-03-26T13:15:41.280Z,3.15
2023-03-26T13:18:29.589Z,3.13
2023-03-26T13:21:10.969Z,2.30
2023-03-26T13:23:40.739Z,2.60
2023-03-26T13:26:13.270Z,2.33
2023-03-26T13:29:01.650Z,2.65
2023-03-26T13:31:33.249Z,2.70
2023-03-26T13:34:18.537Z,2.95
2023-03-26T13:37:16.682Z,2.75
2023-03-26T13:39:51.950Z,2.83
2023-03-26T13:42:51.191Z,2.70
2023-03-26T13:46:02.979Z,3.20
2023-03-26T13:48:48.043Z,2.78
2023-03-26T13:51:35.112Z,3.05
2023-03-26T13:54:37.021Z,3.00
2023-03-26T13:57:48.317Z,2.47
2023-03-26T14:00:27.562Z,3.30
2023-03-26T14:03:06.812Z,3.10
2023-03-26T14:05:47.148Z,3.55
2023-03-26T14:08:35.065Z,3.20
2023-03-26T14:11:35.367Z,3.30
2023-03-26T14:14:21.114Z,3.22
2023-03-26T14:17:10.392Z,3.10
2023-03-26T14:20:24.005Z,3.50
2023-03-26T14:23:09.320Z,3.20
2023-03-26T14:26:20.361Z,4.05
2023-03-26T14:29:06.069Z,3.88
2023-03-26T14:31:38.601Z,3.42
2023-03-26T14:34:24.363Z,3.78
2023-03-26T14:37:09.386Z,3.90
2023-03-26T14:40:01.664Z,4.15
2023-03-26T14:42:53.011Z,4.88
2023-03-26T14:45:52.600Z,4.18
2023-03-26T14:48:51.479Z,4.78
2023-03-26T14:51:42.402Z,5.22
2023-03-26T14:54:13.300Z,5.43
2023-03-26T14:57:06.312Z,5.40
2023-03-26T14:59:51.367Z,4.88
2023-03-26T15:02:36.704Z,5.05
2023-03-26T15:05:09.613Z,4.50
2023-03-26T15:11:03.232Z,4.85
2023-03-26T15:13:50.366Z,5.47
2023-03-26T15:16:29.089Z,4.70
2023-03-26T15:18:55.946Z,5.18
2023-03-26T15:22:04.440Z,4.55
2023-03-26T15:24:56.014Z,5.25
2023-03-26T15:27:46.185Z,5.50
2023-03-26T15:30:50.705Z,6.38
2023-03-26T15:36:32.568Z,5.72
2023-03-26T15:39:27.690Z,5.80
2023-03-26T15:42:25.409Z,6.10
2023-03-26T15:45:00.674Z,5.85
2023-03-26T15:47:45.463Z,6.57
2023-03-26T15:50:34.204Z,6.15
2023-03-26T15:53:07.570Z,6.95
2023-03-26T15:55:45.860Z,7.07
2023-03-26T15:58:26.056Z,6.63
2023-03-26T16:01:05.148Z,6.13
2023-03-26T16:03:48.044Z,6.65
2023-03-26T16:06:33.948Z,6.43
2023-03-26T16:09:21.996Z,6.22
2023-03-26T16:11:57.175Z,6.78
2023-03-26T16:14:36.389Z,7.55
2023-03-26T16:17:06.444Z,5.50
2023-03-26T16:19:41.016Z,4.85
2023-03-26T16:22:30.274Z,5.93
2023-03-26T16:25:30.319Z,4.80
2023-03-26T16:28:06.424Z,3.63
2023-03-26T16:30:33.599Z,4.45
2023-03-26T16:33:14.000Z,3.60
2023-03-26T16:36:06.311Z,4.45
2023-03-26T16:39:03.611Z,4.65
2023-03-26T16:41:50.219Z,4.78
2023-03-26T16:44:43.841Z,6.40
2023-03-26T16:47:29.681Z,4.93
2023-03-26T16:50:08.865Z,3.83
2023-03-26T16:53:02.124Z,3.67
2023-03-26T16:55:43.585Z,3.28
2023-03-26T16:58:30.862Z,3.08
2023-03-26T17:01:12.805Z,2.60
2023-03-26T17:03:57.874Z,2.55
2023-03-26T17:06:30.749Z,2.50
2023-03-26T17:09:22.134Z,2.72
2023-03-26T17:12:05.993Z,2.70
2023-03-26T17:14:54.470Z,2.42
2023-03-26T17:17:39.737Z,2.50
2023-03-26T17:20:33.449Z,1.92
2023-03-26T17:23:09.287Z,1.73
2023-03-26T17:25:45.106Z,1.90
2023-03-26T17:28:35.256Z,2.10
2023-03-26T17:31:12.305Z,1.52
2023-03-26T17:33:39.656Z,1.73
2023-03-26T17:36:12.734Z,1.52
2023-03-26T17:38:39.593Z,1.40
2023-03-26T17:41:08.037Z,1.42
2023-03-26T17:43:53.800Z,1.40
2023-03-26T17:48:55.010Z,2.05
2023-03-26T17:51:49.608Z,1.83
2023-03-26T17:54:28.125Z,1.98
2023-03-26T17:56:58.965Z,2.67
2023-03-26T17:59:28.177Z,2.38
2023-03-26T18:01:59.449Z,2.70
2023-03-26T18:04:33.216Z,2.42
2023-03-26T18:07:04.129Z,2.05
2023-03-26T18:09:52.599Z,2.60
2023-03-26T18:12:37.213Z,2.50
2023-03-26T18:15:53.088Z,2.88
2023-03-26T18:18:29.403Z,2.20
2023-03-26T18:21:00.354Z,2.50
2023-03-26T18:23:49.066Z,2.53
2023-03-26T18:26:38.331Z,2.35
2023-03-26T18:29:25.413Z,2.92
2023-03-26T18:32:00.954Z,3.13
2023-03-26T18:34:32.152Z,2.60
2023-03-26T18:37:08.559Z,2.15
2023-03-26T18:39:35.476Z,3.28
2023-03-26T18:44:29.154Z,3.03
2023-03-26T18:46:56.280Z,3.55
2023-03-26T18:49:25.743Z,3.15
2023-03-26T18:51:57.073Z,2.92
2023-03-26T18:54:29.323Z,2.80
2023-03-26T18:56:56.162Z,3.30
2023-03-26T18:59:34.050Z,3.65
2023-03-26T19:02:06.823Z,3.50
2023-03-26T19:04:34.989Z,3.25
2023-03-26T19:07:04.210Z,3.80
2023-03-26T19:09:32.357Z,3.50
2023-03-26T19:12:07.305Z,3.72
2023-03-26T19:14:37.204Z,3.22
2023-03-26T19:17:06.947Z,3.20
2023-03-26T19:19:36.940Z,3.00
2023-03-26T19:22:11.468Z,2.83
2023-03-26T19:24:39.979Z,2.88
2023-03-26T19:27:07.350Z,2.90
2023-03-26T19:29:36.285Z,3.00
2023-03-26T19:32:06.345Z,3.38
2023-03-26T19:34:38.616Z,3.80
2023-03-26T19:37:18.419Z,3.78
2023-03-26T19:40:18.169Z,4.55
2023-03-26T19:42:45.301Z,5.13
2023-03-26T19:45:20.607Z,4.78
2023-03-26T19:47:57.272Z,5.05
2023-03-26T19:50:33.971Z,5.50
2023-03-26T19:53:28.393Z,5.43
2023-03-26T19:55:57.350Z,5.45
2023-03-26T19:58:26.045Z,5.72
2023-03-26T20:00:53.221Z,5.88
2023-03-26T20:03:38.058Z,6.38
2023-03-26T20:06:05.108Z,6.53
2023-03-26T20:08:32.151Z,6.40
2023-03-26T20:10:59.431Z,6.90
2023-03-26T20:13:26.414Z,6.28
2023-03-26T20:16:10.698Z,6.32
2023-03-26T20:18:38.643Z,6.32
2023-03-26T20:21:11.840Z,6.15
2023-03-26T20:26:09.931Z,5.45
2023-03-26T20:28:47.272Z,5.97
2023-03-26T20:31:22.085Z,5.50
2023-03-26T20:33:50.618Z,6.20
2023-03-26T20:36:33.747Z,5.95
2023-03-26T20:39:08.167Z,5.70
2023-03-26T20:41:37.929Z,5.90
2023-03-26T20:44:13.804Z,5.78
2023-03-26T20:46:41.426Z,6.60
2023-03-26T20:49:08.327Z,7.10
2023-03-26T20:51:38.093Z,6.85
2023-03-26T20:54:23.181Z,6.43
2023-03-26T20:56:51.315Z,6.38
2023-03-26T20:59:22.173Z,6.07
2023-03-26T21:01:50.106Z,6.40
2023-03-26T21:04:17.586Z,6.10
2023-03-26T21:06:44.844Z,5.65
2023-03-26T21:09:23.605Z,6.05
2023-03-26T21:12:05.061Z,6.43
2023-03-26T21:14:41.608Z,6.28
2023-03-26T21:17:17.434Z,6.32
2023-03-26T21:19:45.313Z,7.15
2023-03-26T21:22:35.989Z,7.05
2023-03-26T21:25:21.092Z,6.97
2023-03-26T21:28:08.619Z,7.75
2023-03-26T21:30:36.097Z,7.25
2023-03-26T21:33:05.251Z,7.82
2023-03-26T21:35:34.661Z,7.78
2023-03-26T21:38:04.335Z,7.68
2023-03-26T21:40:31.489Z,7.72
2023-03-26T21:42:58.765Z,8.30
2023-03-26T21:45:26.722Z,7.70
2023-03-26T21:47:53.762Z,7.72
2023-03-26T21:50:23.598Z,6.68
2023-03-26T21:52:51.830Z,6.95
2023-03-26T21:55:21.513Z,6.55
2023-03-26T21:58:12.499Z,7.10
2023-03-26T22:01:08.835Z,6.70
2023-03-26T22:03:51.639Z,7.20
2023-03-26T22:06:59.809Z,6.88
2023-03-26T22:09:35.708Z,7.88
2023-03-26T22:12:04.310Z,6.85
2023-03-26T22:14:31.106Z,7.40
2023-03-26T22:19:24.758Z,7.10
2023-03-26T22:21:51.521Z,7.95
2023-03-26T22:24:18.410Z,7.22
2023-03-26T22:29:12.097Z,7.50
2023-03-26T22:31:39.762Z,7.45
2023-03-26T22:34:07.711Z,7.03
2023-03-26T22:36:35.216Z,7.35
2023-03-26T22:39:02.507Z,7.07
2023-03-26T22:41:32.328Z,7.28
2023-03-26T22:44:09.416Z,7.57
2023-03-26T22:46:40.353Z,7.20
2023-03-26T22:49:07.436Z,7.22
2023-03-26T22:51:34.265Z,7.70
2023-03-26T22:56:27.887Z,7.57
2023-03-26T22:58:54.864Z,7.40
2023-03-26T23:01:27.066Z,7.63
2023-03-26T23:03:55.046Z,7.05
2023-03-26T23:06:21.767Z,7.22
2023-03-26T23:08:48.862Z,7.07
2023-03-26T23:11:18.389Z,6.82
2023-03-26T23:13:46.420Z,6.57
2023-03-26T23:16:14.385Z,6.07
2023-03-26T23:18:41.576Z,5.47
2023-03-26T23:21:19.347Z,5.93
2023-03-26T23:23:52.054Z,5.20
2023-03-26T23:26:19.112Z,5.18
2023-03-26T23:28:46.793Z,5.38
2023-03-26T23:31:14.014Z,5.55
2023-03-26T23:33:46.193Z,4.60
2023-03-26T23:36:17.602Z,4.53
2023-03-26T23:38:48.988Z,4.90
2023-03-26T23:41:21.930Z,4.95
2023-03-26T23:43:56.450Z,4.35
2023-03-26T23:46:25.790Z,4.90
2023-03-26T23:48:53.171Z,4.82
2023-03-26T23:51:20.994Z,4.47
2023-03-26T23:53:49.312Z,4.18
2023-03-26T23:56:16.504Z,4.00
2023-03-26T23:58:43.786Z,3.75
